createdAt,value
2022-08-16T00:00:03.614Z,975.4
2022-08-16T00:05:00.384Z,975.8
2022-08-16T00:10:00.287Z,976.7
2022-08-16T00:15:00.195Z,976.4
2022-08-16T00:20:00.212Z,977.1
2022-08-16T00:25:00.190Z,977.5
2022-08-16T00:30:00.769Z,978
2022-08-16T00:35:00.700Z,977.7
2022-08-16T00:40:00.281Z,977.5
2022-08-16T00:45:00.181Z,978
2022-08-16T00:50:00.237Z,977.3
2022-08-16T00:55:00.192Z,978
2022-08-16T01:00:00.187Z,977.5
2022-08-16T01:05:09.107Z,977.7
2022-08-16T01:10:00.185Z,977.3
2022-08-16T01:15:00.181Z,977.5
2022-08-16T01:20:00.602Z,977.3
2022-08-16T01:25:00.343Z,977.5
2022-08-16T01:30:00.360Z,977.5
2022-08-16T01:35:00.296Z,977.1
2022-08-16T01:40:00.343Z,977.1
2022-08-16T01:45:00.201Z,977.7
2022-08-16T01:50:42.246Z,977.7
2022-08-16T01:55:00.203Z,977.7
2022-08-16T02:00:00.195Z,978
2022-08-16T02:05:01.214Z,978
2022-08-16T02:10:01.981Z,978.4
2022-08-16T02:15:00.177Z,978
2022-08-16T02:20:00.890Z,978.4
2022-08-16T02:25:00.189Z,978.8
2022-08-16T02:30:05.172Z,979
2022-08-16T02:35:00.183Z,978.8
2022-08-16T02:40:00.270Z,979.5
2022-08-16T02:45:00.194Z,979.7
2022-08-16T02:50:52.427Z,979.9
2022-08-16T02:55:00.184Z,979.7
2022-08-16T03:00:01.163Z,979.9
2022-08-16T03:05:00.193Z,980.1
2022-08-16T03:10:00.822Z,980.6
2022-08-16T03:15:00.179Z,980.6
2022-08-16T03:20:02.692Z,980.8
2022-08-16T03:25:00.906Z,981
2022-08-16T03:30:00.194Z,981
2022-08-16T03:35:00.180Z,981.4
2022-08-16T03:40:03.148Z,981.9
2022-08-16T03:45:03.351Z,981.9
2022-08-16T03:50:00.199Z,981.9
2022-08-16T03:55:00.175Z,981.9
2022-08-16T04:00:00.199Z,981.7
2022-08-16T04:05:00.183Z,981.9
2022-08-16T04:10:00.188Z,982.1
2022-08-16T04:15:00.185Z,982.5
2022-08-16T04:20:00.170Z,982.7
2022-08-16T04:25:00.192Z,983.2
2022-08-16T04:30:02.839Z,983
2022-08-16T04:35:03.444Z,983.2
2022-08-16T04:40:00.262Z,983
2022-08-16T04:45:01.955Z,982.7
2022-08-16T04:50:00.219Z,983
2022-08-16T04:55:00.173Z,983.4
2022-08-16T05:00:32.829Z,983.6
2022-08-16T05:05:00.180Z,983.2
2022-08-16T05:10:00.187Z,983.2
2022-08-16T05:15:01.798Z,982.7
2022-08-16T05:20:00.179Z,983.6
2022-08-16T05:25:00.191Z,983.6
2022-08-16T05:30:04.865Z,983.4
2022-08-16T05:35:00.177Z,983.2
2022-08-16T05:40:00.295Z,984
2022-08-16T05:45:00.177Z,984.5
2022-08-16T05:50:00.171Z,984.3
2022-08-16T05:55:01.615Z,984
2022-08-16T06:00:01.833Z,982.7
2022-08-16T06:05:00.182Z,981
2022-08-16T06:10:00.386Z,981.4
2022-08-16T06:15:00.193Z,980.1
2022-08-16T06:20:00.180Z,981
2022-08-16T06:25:00.488Z,980.1
2022-08-16T06:30:00.190Z,980.8
2022-08-16T06:35:02.890Z,981
2022-08-16T06:40:00.331Z,981.2
2022-08-16T06:45:00.194Z,980.6
2022-08-16T06:50:00.189Z,979.9
2022-08-16T06:55:00.175Z,979.5
2022-08-16T07:00:00.194Z,977.5
2022-08-16T07:05:00.177Z,977.5
2022-08-16T07:10:00.186Z,978
2022-08-16T07:15:00.849Z,977.5
2022-08-16T07:20:03.235Z,977.1
2022-08-16T07:25:00.207Z,976.7
2022-08-16T07:30:00.205Z,974.5
2022-08-16T07:35:00.236Z,974.3
2022-08-16T07:40:00.359Z,975.6
2022-08-16T07:45:00.340Z,974.5
2022-08-16T07:50:00.299Z,974
2022-08-16T07:55:00.322Z,973.6
2022-08-16T08:00:00.238Z,972.3
2022-08-16T08:05:00.175Z,971.2
2022-08-16T08:10:00.180Z,970.8
2022-08-16T08:15:00.189Z,970.1
2022-08-16T08:20:00.176Z,968.8
2022-08-16T08:25:03.640Z,968
2022-08-16T08:30:52.391Z,967.7
2022-08-16T08:35:03.896Z,966.2
2022-08-16T08:40:00.244Z,964.9
2022-08-16T08:45:00.180Z,965.1
2022-08-16T08:50:00.175Z,963.6
2022-08-16T08:55:00.190Z,962.7
2022-08-16T09:00:00.207Z,960.6
2022-08-16T09:05:00.176Z,960.6
2022-08-16T09:10:06.129Z,960.1
2022-08-16T09:15:00.178Z,960.1
2022-08-16T09:20:02.838Z,959.3
2022-08-16T09:25:11.163Z,957.5
2022-08-16T09:30:02.638Z,958.4
2022-08-16T09:35:00.215Z,956.9
2022-08-16T09:40:00.599Z,957.1
2022-08-16T09:45:11.470Z,956.2
2022-08-16T09:50:00.184Z,954.5
2022-08-16T09:55:00.189Z,956.2
2022-08-16T10:00:00.188Z,956.4
2022-08-16T10:05:00.262Z,954.7
2022-08-16T10:10:00.194Z,953.6
2022-08-16T10:15:00.199Z,953.2
2022-08-16T10:20:00.176Z,954
2022-08-16T10:25:00.367Z,953.2
2022-08-16T10:30:06.431Z,952.7
2022-08-16T10:35:00.183Z,951.9
2022-08-16T10:40:00.287Z,951.2
2022-08-16T10:45:00.175Z,951.9
2022-08-16T10:50:00.194Z,951
2022-08-16T10:55:40.747Z,951
2022-08-16T11:00:01.307Z,950.4
2022-08-16T11:05:09.025Z,950.8
2022-08-16T11:10:19.830Z,951.4
2022-08-16T11:15:17.069Z,949.5
2022-08-16T11:20:01.194Z,949.7
2022-08-16T11:25:16.256Z,948.4
2022-08-16T11:30:00.182Z,948.8
2022-08-16T11:35:10.728Z,949.3
2022-08-16T11:40:00.372Z,948.4
2022-08-16T11:45:00.254Z,948.4
2022-08-16T11:50:00.268Z,948.4
2022-08-16T11:55:00.565Z,946.7
2022-08-16T12:00:00.397Z,947.1
2022-08-16T12:05:00.885Z,947.5
2022-08-16T12:10:00.183Z,947.7
2022-08-16T12:15:00.597Z,948
2022-08-16T12:20:00.228Z,947.5
2022-08-16T12:25:00.226Z,948.2
2022-08-16T12:30:00.197Z,948
2022-08-16T12:35:00.183Z,947.5
2022-08-16T12:40:00.400Z,947.1
2022-08-16T12:45:00.205Z,946.2
2022-08-16T12:50:00.194Z,947.1
2022-08-16T12:55:00.205Z,946.2
2022-08-16T13:00:00.180Z,946.2
2022-08-16T13:05:00.186Z,946.7
2022-08-16T13:10:02.504Z,945.8
2022-08-16T13:15:00.191Z,945.8
2022-08-16T13:20:09.056Z,945.1
2022-08-16T13:25:00.191Z,945.8
2022-08-16T13:30:00.211Z,945.8
2022-08-16T13:35:01.094Z,945.8
2022-08-16T13:40:00.317Z,946
2022-08-16T13:45:00.188Z,945.4
2022-08-16T13:50:00.181Z,946.4
2022-08-16T13:55:00.177Z,945.4
2022-08-16T14:00:00.181Z,945.4
2022-08-16T14:05:05.173Z,945.6
2022-08-16T14:10:00.232Z,946
2022-08-16T14:15:00.218Z,946.2
2022-08-16T14:20:00.245Z,945.4
2022-08-16T14:25:00.190Z,945.8
2022-08-16T14:30:00.194Z,945.4
2022-08-16T14:35:00.205Z,944.9
2022-08-16T14:40:00.397Z,945.8
2022-08-16T14:45:00.390Z,945.4
2022-08-16T14:50:00.181Z,945.4
2022-08-16T14:55:00.205Z,945.4
2022-08-16T15:00:05.830Z,944.7
2022-08-16T15:05:00.192Z,945.4
2022-08-16T15:10:02.187Z,944.7
2022-08-16T15:15:00.192Z,945.4
2022-08-16T15:20:00.180Z,944.9
2022-08-16T15:25:00.197Z,945.8
2022-08-16T15:30:00.214Z,944.9
2022-08-16T15:35:03.558Z,944.9
2022-08-16T15:40:00.272Z,945.8
2022-08-16T15:45:00.182Z,946.2
2022-08-16T15:50:00.186Z,945.8
2022-08-16T15:55:00.316Z,945.6
2022-08-16T16:00:04.971Z,944.9
2022-08-16T16:05:00.592Z,944.7
2022-08-16T16:10:00.353Z,944.9
2022-08-16T16:15:00.295Z,944.9
2022-08-16T16:20:00.360Z,944.3
2022-08-16T16:25:00.184Z,944.9
2022-08-16T16:30:01.876Z,944.5
2022-08-16T16:35:00.236Z,945.8
2022-08-16T16:40:00.380Z,945.4
2022-08-16T16:45:01.636Z,945.4
2022-08-16T16:50:00.174Z,944.9
2022-08-16T16:55:00.188Z,945.4
2022-08-16T17:00:00.195Z,946
2022-08-16T17:05:00.183Z,946.4
2022-08-16T17:10:00.174Z,945.8
2022-08-16T17:15:00.194Z,946.7
2022-08-16T17:20:00.205Z,947.5
2022-08-16T17:25:00.181Z,948.6
2022-08-16T17:30:00.259Z,948.6
2022-08-16T17:35:00.359Z,949
2022-08-16T17:40:19.241Z,949.3
2022-08-16T17:45:00.230Z,951
2022-08-16T17:50:00.173Z,953.4
2022-08-16T17:55:00.178Z,954.5
2022-08-16T18:00:00.176Z,955.4
2022-08-16T18:05:00.177Z,956.2
2022-08-16T18:10:00.188Z,956.9
2022-08-16T18:15:00.467Z,958
2022-08-16T18:20:00.177Z,958.8
2022-08-16T18:25:00.185Z,959.3
2022-08-16T18:30:00.175Z,959.7
2022-08-16T18:35:00.188Z,960.1
2022-08-16T18:40:00.401Z,960.6
2022-08-16T18:45:00.182Z,961.2
2022-08-16T18:50:00.180Z,961.4
2022-08-16T18:55:13.782Z,962.1
2022-08-16T19:00:00.203Z,962.7
2022-08-16T19:05:00.211Z,963.2
2022-08-16T19:10:00.209Z,963.8
2022-08-16T19:15:00.177Z,964.5
2022-08-16T19:20:00.210Z,964.9
2022-08-16T19:25:00.174Z,966
2022-08-16T19:30:00.183Z,966.2
2022-08-16T19:35:00.183Z,966.7
2022-08-16T19:40:00.370Z,967.1
2022-08-16T19:45:00.179Z,967.5
2022-08-16T19:50:00.217Z,968
2022-08-16T19:55:00.205Z,968.4
2022-08-16T20:00:00.226Z,969.3
2022-08-16T20:05:00.188Z,969.9
2022-08-16T20:10:00.200Z,970.1
2022-08-16T20:15:00.187Z,970.4
2022-08-16T20:20:00.193Z,970.8
2022-08-16T20:25:00.189Z,970.8
2022-08-16T20:30:00.173Z,971.4
2022-08-16T20:35:00.177Z,971.4
2022-08-16T20:40:28.696Z,971.4
2022-08-16T20:45:00.186Z,971.4
2022-08-16T20:50:00.180Z,971.9
2022-08-16T20:55:00.184Z,972.1
2022-08-16T21:00:00.190Z,971.9
2022-08-16T21:05:00.176Z,971.9
2022-08-16T21:10:00.182Z,971.9
2022-08-16T21:15:00.182Z,971.9
2022-08-16T21:20:00.177Z,971.9
2022-08-16T21:25:00.202Z,971.9
2022-08-16T21:30:00.187Z,971.9
2022-08-16T21:35:00.198Z,971.7
2022-08-16T21:40:00.288Z,971.7
2022-08-16T21:45:00.188Z,971.7
2022-08-16T21:50:00.167Z,971.7
2022-08-16T21:55:00.275Z,971.4
2022-08-16T22:00:00.204Z,971.9
2022-08-16T22:05:00.173Z,971.9
2022-08-16T22:10:00.196Z,972.3
2022-08-16T22:15:00.198Z,972.7
2022-08-16T22:20:00.197Z,972.7
2022-08-16T22:25:00.242Z,972.7
2022-08-16T22:30:00.286Z,972.5
2022-08-16T22:35:12.373Z,972.3
2022-08-16T22:40:00.355Z,971.9
2022-08-16T22:45:00.186Z,971.7
2022-08-16T22:50:00.186Z,971.4
2022-08-16T22:55:00.179Z,971.2
2022-08-16T23:00:00.187Z,971.4
2022-08-16T23:05:00.188Z,971.9
2022-08-16T23:10:00.206Z,972.3
2022-08-16T23:15:00.174Z,972.5
2022-08-16T23:20:00.207Z,972.7
2022-08-16T23:25:00.173Z,972.7
2022-08-16T23:30:00.230Z,972.5
2022-08-16T23:35:00.182Z,972.5
2022-08-16T23:40:00.297Z,972.3
2022-08-16T23:45:00.183Z,972.7
2022-08-16T23:50:03.861Z,972.7
2022-08-16T23:55:00.188Z,972.3
